Time;durP1;ratioP1;P1;durP2;ratioP2;P2;SDS_P1;SDS_P2;PMS_P1;PMS_P2;Temp;Humidity;BMP_temperature;BMP_pressure;BME280_temperature;BME280_humidity;BME280_pressure;Samples;Min_cycle;Max_cycle;Signal;HPM_P1;HPM_P2
2022/01/18 00:01:25;;;;;;;;;;;3.40;99.90;;;;;;5075193;28;19963;-75
2022/01/18 00:03:50;;;;;;;;;;;3.30;99.90;;;;;;5060250;28;20303;-75
2022/01/18 00:06:16;;;;;;;;;;;3.20;99.90;;;;;;5057095;28;20006;-75
2022/01/18 00:08:41;;;;;;;;;;;3.20;99.90;;;;;;5073897;28;19909;-75
2022/01/18 00:11:08;;;;;;;;;;;3.20;99.90;;;;;;5074951;28;19925;-75
2022/01/18 00:13:41;;;;;;;;;;;3.10;99.90;;;;;;5055568;28;20023;-75
2022/01/18 00:18:34;;;;;;;;;;;3.10;99.90;;;;;;5073653;28;19951;-75
2022/01/18 00:23:27;;;;;;;;;;;3.00;99.90;;;;;;5074304;28;20223;-75
2022/01/18 00:25:56;;;;;;;;;;;3.00;99.90;;;;;;5074353;28;20430;-75
2022/01/18 00:28:22;;;;;;;;;;;3.00;99.90;;;;;;5073642;28;19951;-75
2022/01/18 00:36:29;;;;;;;;;;;3.00;99.90;;;;;;5074777;28;19960;-75
2022/01/18 00:38:55;;;;;;;;;;;3.00;99.90;;;;;;5074494;28;20373;-75
2022/01/18 00:41:22;;;;;;;;;;;2.90;99.90;;;;;;5074667;28;19919;-75
2022/01/18 00:43:48;;;;;;;;;;;2.90;99.90;;;;;;5046076;28;19913;-75
2022/01/18 00:46:14;;;;;;;;;;;2.80;99.90;;;;;;5056531;28;19915;-74
2022/01/18 00:48:40;;;;;;;;;;;2.70;99.90;;;;;;5074486;28;19928;-75
2022/01/18 00:51:09;;;;;;;;;;;2.70;99.90;;;;;;5087293;28;19908;-75
2022/01/18 00:53:37;;;;;;;;;;;2.60;99.90;;;;;;5074471;28;19921;-75
2022/01/18 00:58:38;;;;;;;;;;;2.60;99.90;;;;;;5074839;28;20281;-75
2022/01/18 01:01:04;;;;;;;;;;;2.60;99.90;;;;;;5074764;28;19916;-75
2022/01/18 01:03:29;;;;;;;;;;;2.60;99.90;;;;;;5080853;28;20023;-75
2022/01/18 01:05:55;;;;;;;;;;;2.60;99.90;;;;;;5074281;28;19913;-75
2022/01/18 01:08:21;;;;;;;;;;;2.60;99.90;;;;;;5074424;28;19913;-75
2022/01/18 01:10:48;;;;;;;;;;;2.50;99.90;;;;;;5074002;28;19959;-75
2022/01/18 01:13:14;;;;;;;;;;;2.40;99.90;;;;;;5056595;28;19943;-75
2022/01/18 01:34:44;;;;;;;;;;;1.70;99.90;;;;;;5078068;28;19924;-75
2022/01/18 01:45:20;;;;;;;;;;;1.70;99.90;;;;;;5077742;28;20376;-75
2022/01/18 01:47:50;;;;;;;;;;;1.60;99.90;;;;;;5076411;28;20007;-75
2022/01/18 01:50:19;;;;;;;;;;;1.70;99.90;;;;;;5059909;28;19919;-75
2022/01/18 01:52:45;;;;;;;;;;;1.70;99.90;;;;;;5077650;28;20385;-75
2022/01/18 01:55:11;;;;;;;;;;;1.60;99.90;;;;;;5077148;28;19917;-75
2022/01/18 01:57:37;;;;;;;;;;;1.60;99.90;;;;;;5076425;28;19962;-75
2022/01/18 02:00:07;;;;;;;;;;;1.60;99.90;;;;;;5075974;28;19920;-75
2022/01/18 02:02:32;;;;;;;;;;;1.60;99.90;;;;;;5076874;28;20026;-75
2022/01/18 02:04:58;;;;;;;;;;;1.60;99.90;;;;;;5077329;28;19983;-75
2022/01/18 02:07:24;;;;;;;;;;;1.60;99.90;;;;;;5077163;28;19912;-75
2022/01/18 02:09:49;;;;;;;;;;;1.50;99.90;;;;;;5076920;28;20623;-75
2022/01/18 02:12:18;;;;;;;;;;;1.50;99.90;;;;;;5076948;28;20293;-75
2022/01/18 02:14:48;;;;;;;;;;;1.50;99.90;;;;;;5070356;28;19913;-74
2022/01/18 02:22:51;;;;;;;;;;;1.40;99.90;;;;;;5074387;28;19919;-74
2022/01/18 02:25:17;;;;;;;;;;;1.30;99.90;;;;;;5059402;28;19908;-74
2022/01/18 02:27:42;;;;;;;;;;;1.30;99.90;;;;;;5076534;28;19912;-75
2022/01/18 02:30:08;;;;;;;;;;;1.30;99.90;;;;;;5075689;28;19935;-75
2022/01/18 02:32:34;;;;;;;;;;;1.20;99.90;;;;;;5076539;28;19920;-75
2022/01/18 02:35:00;;;;;;;;;;;1.10;99.90;;;;;;5072641;28;19925;-75
2022/01/18 02:37:25;;;;;;;;;;;1.10;99.90;;;;;;5074604;28;19921;-74
2022/01/18 02:39:51;;;;;;;;;;;1.20;99.90;;;;;;5076963;28;20007;-75
2022/01/18 02:42:20;;;;;;;;;;;1.20;99.90;;;;;;5075117;28;20217;-74
2022/01/18 02:44:46;;;;;;;;;;;1.10;99.90;;;;;;5076411;28;19986;-75
2022/01/18 02:47:11;;;;;;;;;;;1.00;99.90;;;;;;5076290;28;19920;-74
2022/01/18 02:49:37;;;;;;;;;;;1.00;99.90;;;;;;5076497;28;20296;-75
2022/01/18 02:52:03;;;;;;;;;;;1.10;99.90;;;;;;5074869;28;19913;-75
2022/01/18 02:54:29;;;;;;;;;;;1.00;99.90;;;;;;5069097;28;19959;-75
2022/01/18 02:56:59;;;;;;;;;;;1.10;99.90;;;;;;5075763;28;19920;-75
2022/01/18 02:59:50;;;;;;;;;;;1.10;99.90;;;;;;5076235;28;19917;-75
2022/01/18 03:05:04;;;;;;;;;;;0.90;99.90;;;;;;5076402;28;19919;-75
2022/01/18 03:07:30;;;;;;;;;;;0.90;99.90;;;;;;5073782;28;19920;-74
2022/01/18 03:09:55;;;;;;;;;;;0.90;99.90;;;;;;5074859;28;19978;-75
2022/01/18 03:12:21;;;;;;;;;;;0.90;99.90;;;;;;5075496;28;19928;-75
2022/01/18 03:14:46;;;;;;;;;;;1.00;99.90;;;;;;5076291;28;20271;-75
2022/01/18 03:17:12;;;;;;;;;;;1.10;99.90;;;;;;5073956;28;19966;-75
2022/01/18 03:19:38;;;;;;;;;;;1.10;99.90;;;;;;5074898;28;19912;-74
2022/01/18 03:22:04;;;;;;;;;;;1.10;99.90;;;;;;5075690;28;20051;-75
2022/01/18 03:29:39;;;;;;;;;;;1.10;99.90;;;;;;5067474;28;19928;-74
2022/01/18 03:32:05;;;;;;;;;;;1.20;99.90;;;;;;5075307;28;19917;-74
2022/01/18 03:34:30;;;;;;;;;;;1.20;99.90;;;;;;5075548;28;19912;-74
2022/01/18 03:36:56;;;;;;;;;;;1.30;99.90;;;;;;5056345;28;19916;-75
2022/01/18 03:39:21;;;;;;;;;;;1.30;99.90;;;;;;5073991;28;20193;-75
2022/01/18 03:41:54;;;;;;;;;;;1.40;99.90;;;;;;5075319;28;19958;-75
2022/01/18 03:44:21;;;;;;;;;;;1.40;99.90;;;;;;5075366;28;19943;-75
2022/01/18 03:46:47;;;;;;;;;;;1.40;99.90;;;;;;5075481;28;20356;-75
2022/01/18 03:49:13;;;;;;;;;;;1.40;99.90;;;;;;5057608;28;19912;-77
2022/01/18 03:51:38;;;;;;;;;;;1.50;99.90;;;;;;5074948;28;19955;-75
2022/01/18 03:54:04;;;;;;;;;;;1.60;99.90;;;;;;5074588;28;19966;-74
2022/01/18 03:56:29;;;;;;;;;;;1.70;99.90;;;;;;5073880;28;20015;-74
2022/01/18 03:58:55;;;;;;;;;;;1.70;99.90;;;;;;5075245;28;19920;-74
2022/01/18 04:01:21;;;;;;;;;;;1.70;99.90;;;;;;5072443;28;19912;-74
2022/01/18 04:03:47;;;;;;;;;;;1.60;99.90;;;;;;5070355;28;19912;-75
2022/01/18 04:06:12;;;;;;;;;;;1.60;99.90;;;;;;5073733;28;19913;-75
2022/01/18 04:08:38;;;;;;;;;;;1.60;99.90;;;;;;5075002;28;20345;-75
2022/01/18 04:11:03;;;;;;;;;;;1.70;99.90;;;;;;5074731;28;20015;-74
2022/01/18 04:13:29;;;;;;;;;;;1.70;99.90;;;;;;5075088;28;20353;-75
2022/01/18 04:15:55;;;;;;;;;;;1.70;99.90;;;;;;5074610;28;20266;-74
2022/01/18 04:18:28;;;;;;;;;;;1.80;99.90;;;;;;5075247;28;20307;-74
2022/01/18 04:28:54;;;;;;;;;;;1.80;99.90;;;;;;5074795;28;19913;-75
2022/01/18 04:31:20;;;;;;;;;;;1.80;99.90;;;;;;5073448;28;19943;-74
2022/01/18 04:33:46;;;;;;;;;;;1.80;99.90;;;;;;5056284;28;20304;-75
2022/01/18 04:36:12;;;;;;;;;;;1.80;99.90;;;;;;5073452;28;20266;-75
2022/01/18 04:38:37;;;;;;;;;;;1.90;99.90;;;;;;5075082;28;20215;-75
2022/01/18 04:41:06;;;;;;;;;;;1.90;99.90;;;;;;5073154;28;19963;-74
2022/01/18 04:43:51;;;;;;;;;;;1.80;99.90;;;;;;5084138;28;20242;-74
2022/01/18 04:49:01;;;;;;;;;;;1.90;99.90;;;;;;5074616;28;20012;-75
2022/01/18 04:51:27;;;;;;;;;;;1.90;99.90;;;;;;5074349;28;19912;-75
2022/01/18 04:53:58;;;;;;;;;;;1.90;99.90;;;;;;5056513;28;19966;-75
2022/01/18 04:57:51;;;;;;;;;;;1.90;99.90;;;;;;5052867;28;19913;-75
2022/01/18 04:59:14;;;;;;;;;;;2.00;99.90;;;;;;5074811;28;20309;-75
2022/01/18 05:01:41;;;;;;;;;;;2.00;99.90;;;;;;5075053;28;19926;-75
2022/01/18 05:04:07;;;;;;;;;;;2.10;99.90;;;;;;5074524;28;19912;-75
2022/01/18 05:06:33;;;;;;;;;;;2.10;99.90;;;;;;5077174;28;19958;-75
2022/01/18 05:09:05;;;;;;;;;;;2.10;99.90;;;;;;5078291;28;20258;-75
2022/01/18 05:11:32;;;;;;;;;;;2.20;99.90;;;;;;5057513;28;19920;-75
2022/01/18 05:14:25;;;;;;;;;;;2.30;99.90;;;;;;5058614;28;19909;-75
2022/01/18 05:17:33;;;;;;;;;;;2.30;99.90;;;;;;5058190;28;19921;-75
2022/01/18 05:24:31;;;;;;;;;;;2.40;99.90;;;;;;5058338;28;20318;-75
2022/01/18 05:26:57;;;;;;;;;;;2.40;99.90;;;;;;5058218;28;19909;-75
2022/01/18 05:29:22;;;;;;;;;;;2.50;99.90;;;;;;5071620;28;20003;-75
2022/01/18 05:31:48;;;;;;;;;;;2.50;99.90;;;;;;5092849;28;20015;-75
2022/01/18 05:34:14;;;;;;;;;;;2.50;99.90;;;;;;5056875;28;20197;-75
2022/01/18 05:36:39;;;;;;;;;;;2.50;99.90;;;;;;5062534;28;19924;-75
2022/01/18 05:39:09;;;;;;;;;;;2.50;99.90;;;;;;5078104;28;19912;-75
2022/01/18 05:41:35;;;;;;;;;;;2.60;99.90;;;;;;5065245;28;19921;-75
2022/01/18 05:44:00;;;;;;;;;;;2.50;99.90;;;;;;5058046;28;19954;-76
2022/01/18 05:46:26;;;;;;;;;;;2.50;99.90;;;;;;5074560;28;19955;-75
2022/01/18 05:48:51;;;;;;;;;;;2.60;99.90;;;;;;5056309;28;19921;-75
2022/01/18 05:51:17;;;;;;;;;;;2.60;99.90;;;;;;5057128;28;20219;-75
2022/01/18 05:53:42;;;;;;;;;;;2.60;99.90;;;;;;5057126;28;19940;-76
2022/01/18 05:56:11;;;;;;;;;;;2.50;99.90;;;;;;5055209;28;20383;-75
2022/01/18 05:58:44;;;;;;;;;;;2.50;99.90;;;;;;5056763;28;19916;-75
2022/01/18 06:01:10;;;;;;;;;;;2.50;99.90;;;;;;5053345;28;19920;-75
2022/01/18 06:03:50;;;;;;;;;;;2.60;99.90;;;;;;5071891;28;19917;-75
2022/01/18 06:09:00;;;;;;;;;;;2.50;99.90;;;;;;5055965;28;19920;-75
2022/01/18 06:11:26;;;;;;;;;;;2.60;99.90;;;;;;5055114;28;19925;-75
2022/01/18 06:13:51;;;;;;;;;;;2.50;99.90;;;;;;5056873;28;20342;-75
2022/01/18 06:16:17;;;;;;;;;;;2.60;99.90;;;;;;5055933;28;19921;-75
2022/01/18 06:18:42;;;;;;;;;;;2.60;99.90;;;;;;5054604;28;20266;-76
2022/01/18 06:21:08;;;;;;;;;;;2.60;99.90;;;;;;5054258;28;20007;-76
2022/01/18 06:23:33;;;;;;;;;;;2.70;99.90;;;;;;5053325;28;19913;-76
2022/01/18 06:26:02;;;;;;;;;;;2.70;99.90;;;;;;5055913;28;19933;-75
2022/01/18 06:28:28;;;;;;;;;;;2.70;99.90;;;;;;5051435;28;19924;-75
2022/01/18 06:30:53;;;;;;;;;;;2.60;99.90;;;;;;5055795;28;19913;-75
2022/01/18 06:33:19;;;;;;;;;;;2.70;99.90;;;;;;5052498;28;20351;-75
2022/01/18 06:35:45;;;;;;;;;;;2.70;99.90;;;;;;5053945;28;20216;-75
2022/01/18 06:38:12;;;;;;;;;;;2.70;99.90;;;;;;5050219;28;19956;-75
2022/01/18 06:40:38;;;;;;;;;;;2.70;99.90;;;;;;5055032;28;19917;-76
2022/01/18 06:43:04;;;;;;;;;;;2.70;99.90;;;;;;5047868;28;20212;-75
2022/01/18 06:45:30;;;;;;;;;;;2.80;99.90;;;;;;5055548;28;19920;-75
2022/01/18 06:47:55;;;;;;;;;;;2.80;99.90;;;;;;5056190;28;19944;-76
2022/01/18 06:50:21;;;;;;;;;;;2.80;99.90;;;;;;5046339;28;19979;-76
2022/01/18 06:52:46;;;;;;;;;;;2.70;99.90;;;;;;5061836;28;19944;-75
2022/01/18 06:55:12;;;;;;;;;;;2.70;99.90;;;;;;5056319;28;19917;-75
2022/01/18 06:57:38;;;;;;;;;;;2.70;99.90;;;;;;5056639;28;19952;-76
2022/01/18 07:00:04;;;;;;;;;;;2.80;99.90;;;;;;5056202;28;19909;-75
2022/01/18 07:02:30;;;;;;;;;;;2.80;99.90;;;;;;5056176;28;19943;-75
2022/01/18 07:04:55;;;;;;;;;;;2.80;99.90;;;;;;5054914;28;20340;-76
2022/01/18 07:07:21;;;;;;;;;;;2.90;99.90;;;;;;5055963;28;20311;-75
2022/01/18 07:09:47;;;;;;;;;;;2.80;99.90;;;;;;5055220;28;19913;-76
2022/01/18 07:12:13;;;;;;;;;;;2.80;99.90;;;;;;5054551;28;19971;-76
2022/01/18 07:14:39;;;;;;;;;;;2.80;99.90;;;;;;5054114;28;19967;-76
2022/01/18 07:17:05;;;;;;;;;;;2.80;99.90;;;;;;5042476;28;19917;-76
2022/01/18 07:19:32;;;;;;;;;;;2.80;99.90;;;;;;5055937;28;19909;-76
2022/01/18 07:22:00;;;;;;;;;;;2.80;99.90;;;;;;5060634;28;19912;-76
2022/01/18 07:24:46;;;;;;;;;;;2.80;99.90;;;;;;5070385;28;19912;-76
2022/01/18 07:27:14;;;;;;;;;;;2.80;99.90;;;;;;5060856;28;20390;-77
2022/01/18 07:29:44;;;;;;;;;;;2.80;99.90;;;;;;5061301;28;20318;-76
2022/01/18 07:32:10;;;;;;;;;;;2.80;99.90;;;;;;5052303;28;20582;-77
2022/01/18 07:34:45;;;;;;;;;;;2.80;99.90;;;;;;5071249;28;20259;-77
2022/01/18 07:37:11;;;;;;;;;;;2.80;99.90;;;;;;5068870;28;19995;-76
2022/01/18 07:39:37;;;;;;;;;;;2.80;99.90;;;;;;5041293;28;20277;-77
2022/01/18 07:42:02;;;;;;;;;;;2.80;99.90;;;;;;5045198;28;19917;-77
2022/01/18 07:44:29;;;;;;;;;;;2.90;99.90;;;;;;5057256;28;19912;-78
2022/01/18 07:46:54;;;;;;;;;;;2.90;99.90;;;;;;5057622;28;19913;-77
2022/01/18 07:49:20;;;;;;;;;;;2.90;99.90;;;;;;5053564;28;19923;-77
2022/01/18 07:51:45;;;;;;;;;;;2.90;99.90;;;;;;5052364;28;19913;-77
2022/01/18 07:54:11;;;;;;;;;;;2.90;99.90;;;;;;5051868;28;20238;-77
2022/01/18 07:56:41;;;;;;;;;;;3.00;99.90;;;;;;5051214;28;20315;-77
2022/01/18 07:59:07;;;;;;;;;;;3.10;99.90;;;;;;5054744;28;19918;-78
2022/01/18 08:01:32;;;;;;;;;;;3.10;99.90;;;;;;5053803;28;19921;-78
2022/01/18 08:03:58;;;;;;;;;;;3.10;99.90;;;;;;5050436;28;19920;-78
2022/01/18 08:06:23;;;;;;;;;;;3.20;99.90;;;;;;5052567;28;19921;-78
2022/01/18 08:08:49;;;;;;;;;;;3.20;99.90;;;;;;5052901;28;20224;-78
2022/01/18 08:11:16;;;;;;;;;;;3.20;99.90;;;;;;5058373;28;19931;-77
2022/01/18 08:13:44;;;;;;;;;;;3.30;99.90;;;;;;5072184;28;19909;-76
2022/01/18 08:16:22;;;;;;;;;;;3.30;99.90;;;;;;5071934;28;19917;-77
2022/01/18 08:18:49;;;;;;;;;;;3.30;99.90;;;;;;5049638;28;19921;-76
2022/01/18 08:21:15;;;;;;;;;;;3.40;99.90;;;;;;5072516;28;19913;-76
2022/01/18 08:23:40;;;;;;;;;;;3.40;99.90;;;;;;5070978;28;19912;-77
2022/01/18 08:26:06;;;;;;;;;;;3.40;99.90;;;;;;5056192;28;19920;-77
2022/01/18 08:28:31;;;;;;;;;;;3.50;99.90;;;;;;5058693;28;19916;-76
2022/01/18 08:30:57;;;;;;;;;;;3.60;99.90;;;;;;5069082;28;19944;-77
2022/01/18 08:33:24;;;;;;;;;;;3.50;99.90;;;;;;5053246;28;20362;-77
2022/01/18 08:35:49;;;;;;;;;;;3.50;99.90;;;;;;5073987;28;20014;-77
2022/01/18 08:38:15;;;;;;;;;;;3.60;99.90;;;;;;5060629;28;20114;-77
2022/01/18 08:40:41;;;;;;;;;;;3.50;99.90;;;;;;5072577;28;20312;-77
2022/01/18 08:43:06;;;;;;;;;;;3.50;99.90;;;;;;5076722;28;19920;-76
2022/01/18 08:45:32;;;;;;;;;;;3.50;99.90;;;;;;5077979;28;20271;-77
2022/01/18 08:47:57;;;;;;;;;;;3.60;99.90;;;;;;5061569;28;20227;-76
2022/01/18 08:50:23;;;;;;;;;;;3.60;99.90;;;;;;5060205;28;19915;-77
2022/01/18 08:52:51;;;;;;;;;;;3.60;99.90;;;;;;5075985;28;19913;-77
2022/01/18 08:55:17;;;;;;;;;;;3.60;99.90;;;;;;5076637;28;19920;-77
2022/01/18 08:57:43;;;;;;;;;;;3.70;99.90;;;;;;5065836;28;20012;-77
2022/01/18 09:00:10;;;;;;;;;;;3.80;99.90;;;;;;5065540;28;20004;-77
2022/01/18 09:02:36;;;;;;;;;;;3.70;99.90;;;;;;5049007;28;19924;-77
2022/01/18 09:05:02;;;;;;;;;;;3.70;99.90;;;;;;5065751;28;19920;-76
2022/01/18 09:07:27;;;;;;;;;;;3.80;99.90;;;;;;5066111;28;19952;-77
2022/01/18 09:10:02;;;;;;;;;;;3.70;99.90;;;;;;5065043;28;19921;-77
2022/01/18 09:12:28;;;;;;;;;;;3.80;99.90;;;;;;5051223;28;19929;-77
2022/01/18 09:14:53;;;;;;;;;;;3.80;99.90;;;;;;5066141;28;19966;-77
2022/01/18 09:17:19;;;;;;;;;;;3.70;99.90;;;;;;5052309;28;19974;-77
2022/01/18 09:19:44;;;;;;;;;;;3.80;99.90;;;;;;5065102;28;19928;-76
2022/01/18 09:22:10;;;;;;;;;;;3.90;99.90;;;;;;5065192;28;19927;-76
2022/01/18 09:24:36;;;;;;;;;;;3.80;99.90;;;;;;5063833;28;19924;-77
2022/01/18 09:27:01;;;;;;;;;;;3.80;99.90;;;;;;5066453;28;20311;-77
2022/01/18 09:29:27;;;;;;;;;;;3.80;99.90;;;;;;5051337;28;19921;-78
2022/01/18 09:31:53;;;;;;;;;;;3.90;99.90;;;;;;5050779;28;20209;-78
2022/01/18 09:34:18;;;;;;;;;;;3.90;99.90;;;;;;5071959;28;19923;-78
2022/01/18 09:36:44;;;;;;;;;;;3.90;99.90;;;;;;5073688;28;20403;-78
2022/01/18 09:39:10;;;;;;;;;;;3.80;99.90;;;;;;5055331;28;19943;-78
2022/01/18 09:41:39;;;;;;;;;;;3.90;99.90;;;;;;5072261;28;19917;-78
2022/01/18 09:44:06;;;;;;;;;;;3.80;99.90;;;;;;5071653;28;19923;-78
2022/01/18 09:46:31;;;;;;;;;;;3.80;99.90;;;;;;5046173;28;20040;-77
2022/01/18 09:48:57;;;;;;;;;;;3.90;99.90;;;;;;5094982;28;20319;-78
2022/01/18 09:51:23;;;;;;;;;;;3.90;99.90;;;;;;5073993;28;19914;-78
2022/01/18 09:53:50;;;;;;;;;;;3.90;99.90;;;;;;5055771;28;19924;-78
2022/01/18 09:56:16;;;;;;;;;;;3.90;99.90;;;;;;5062127;28;19920;-79
2022/01/18 09:58:44;;;;;;;;;;;3.80;99.90;;;;;;5077663;28;19920;-78
2022/01/18 10:01:09;;;;;;;;;;;3.80;99.90;;;;;;5073359;28;19962;-78
2022/01/18 10:03:36;;;;;;;;;;;3.80;99.90;;;;;;5058866;28;19920;-80
2022/01/18 10:06:02;;;;;;;;;;;3.80;99.90;;;;;;5073277;28;19982;-78
2022/01/18 10:08:28;;;;;;;;;;;3.80;99.90;;;;;;5073245;28;19913;-78
2022/01/18 10:10:58;;;;;;;;;;;3.70;99.90;;;;;;5072548;28;19970;-79
2022/01/18 10:13:28;;;;;;;;;;;3.80;99.90;;;;;;5071893;28;20307;-78
2022/01/18 10:15:57;;;;;;;;;;;3.70;99.90;;;;;;5074402;28;20222;-78
2022/01/18 10:18:30;;;;;;;;;;;3.70;99.90;;;;;;5073855;28;20253;-78
2022/01/18 10:20:57;;;;;;;;;;;3.80;99.90;;;;;;5074136;28;19920;-79
2022/01/18 10:23:24;;;;;;;;;;;3.80;99.90;;;;;;5055851;28;19959;-77
2022/01/18 10:25:49;;;;;;;;;;;3.80;99.90;;;;;;5072922;28;19951;-78
2022/01/18 10:28:28;;;;;;;;;;;3.90;99.90;;;;;;5072748;28;19955;-77
2022/01/18 10:30:54;;;;;;;;;;;3.80;99.90;;;;;;5071896;28;19909;-77
2022/01/18 10:33:27;;;;;;;;;;;3.90;99.90;;;;;;5086263;28;19920;-78
2022/01/18 10:36:04;;;;;;;;;;;3.90;99.90;;;;;;5094005;28;19920;-78
2022/01/18 10:38:30;;;;;;;;;;;3.90;99.90;;;;;;5075617;28;20333;-77
2022/01/18 10:40:55;;;;;;;;;;;4.00;99.90;;;;;;5085308;28;19913;-78
2022/01/18 10:43:32;;;;;;;;;;;4.00;99.90;;;;;;5073403;28;19923;-78
2022/01/18 10:46:14;;;;;;;;;;;4.00;99.90;;;;;;5072143;28;20013;-77
2022/01/18 10:48:46;;;;;;;;;;;4.00;99.90;;;;;;5073218;28;19916;-78
2022/01/18 10:51:25;;;;;;;;;;;4.10;99.90;;;;;;5048361;28;20193;-78
2022/01/18 10:54:02;;;;;;;;;;;4.10;99.90;;;;;;5070917;28;19958;-77
2022/01/18 10:56:47;;;;;;;;;;;4.10;99.90;;;;;;5073327;28;19947;-78
2022/01/18 10:59:23;;;;;;;;;;;4.20;99.90;;;;;;5054618;28;19916;-77
2022/01/18 11:02:09;;;;;;;;;;;4.20;99.90;;;;;;5070317;28;19938;-78
2022/01/18 11:04:35;;;;;;;;;;;4.30;99.90;;;;;;5051274;28;20038;-79
2022/01/18 11:07:03;;;;;;;;;;;4.20;99.90;;;;;;5068911;28;19947;-77
2022/01/18 11:09:29;;;;;;;;;;;4.20;99.90;;;;;;5070472;28;20286;-78
2022/01/18 11:11:55;;;;;;;;;;;4.30;99.90;;;;;;5071405;28;20016;-77
2022/01/18 11:14:22;;;;;;;;;;;4.30;99.90;;;;;;5053465;28;19927;-78
2022/01/18 11:16:48;;;;;;;;;;;4.40;99.90;;;;;;5068996;28;19938;-78
2022/01/18 11:19:28;;;;;;;;;;;4.40;99.90;;;;;;5070329;28;20578;-77
2022/01/18 11:21:58;;;;;;;;;;;4.50;99.90;;;;;;5071257;28;20007;-78
2022/01/18 11:24:24;;;;;;;;;;;4.50;99.90;;;;;;5068762;28;19916;-78
2022/01/18 11:26:50;;;;;;;;;;;4.50;99.90;;;;;;5070393;28;19916;-77
2022/01/18 11:29:17;;;;;;;;;;;4.60;99.90;;;;;;5071757;28;19920;-78
2022/01/18 11:31:50;;;;;;;;;;;4.60;99.90;;;;;;5049593;28;19964;-77
2022/01/18 11:34:29;;;;;;;;;;;4.60;99.90;;;;;;5070127;28;19917;-77
2022/01/18 11:36:59;;;;;;;;;;;4.60;99.90;;;;;;5068044;28;19920;-78
2022/01/18 11:39:27;;;;;;;;;;;4.70;99.90;;;;;;5072373;28;19962;-78
2022/01/18 11:42:04;;;;;;;;;;;4.80;99.90;;;;;;5052141;28;19916;-78
2022/01/18 11:44:29;;;;;;;;;;;4.70;99.90;;;;;;5068215;28;19916;-78
2022/01/18 11:46:55;;;;;;;;;;;4.80;99.90;;;;;;5070690;28;19974;-78
2022/01/18 11:49:21;;;;;;;;;;;4.70;99.90;;;;;;5068890;28;19916;-78
2022/01/18 11:51:53;;;;;;;;;;;4.70;99.90;;;;;;5070060;28;19948;-77
2022/01/18 11:57:23;;;;;;;;;;;4.80;99.90;;;;;;5057910;28;19986;-78
2022/01/18 11:59:49;;;;;;;;;;;4.80;99.90;;;;;;5069887;28;19924;-78
2022/01/18 12:02:27;;;;;;;;;;;4.80;99.90;;;;;;5048458;28;20295;-77
2022/01/18 12:05:04;;;;;;;;;;;4.80;99.90;;;;;;5052698;28;19921;-78
2022/01/18 12:07:47;;;;;;;;;;;4.80;99.90;;;;;;5070480;28;19916;-78
2022/01/18 12:10:19;;;;;;;;;;;4.90;99.90;;;;;;5064485;28;19916;-77
2022/01/18 12:12:46;;;;;;;;;;;4.90;99.90;;;;;;5069833;28;20244;-78
2022/01/18 12:15:15;;;;;;;;;;;4.90;99.90;;;;;;5053715;28;19942;-78
2022/01/18 12:17:48;;;;;;;;;;;4.90;99.90;;;;;;5057553;28;20051;-78
2022/01/18 12:20:32;;;;;;;;;;;4.90;99.90;;;;;;5072566;28;19920;-78
2022/01/18 12:23:06;;;;;;;;;;;4.90;99.90;;;;;;5071272;28;19990;-78
2022/01/18 12:25:34;;;;;;;;;;;5.00;99.90;;;;;;5070136;28;19916;-78
2022/01/18 12:28:19;;;;;;;;;;;5.00;99.90;;;;;;5057643;28;19917;-78
2022/01/18 12:31:04;;;;;;;;;;;5.00;99.90;;;;;;5060922;28;19917;-78
2022/01/18 12:33:42;;;;;;;;;;;5.00;99.90;;;;;;5070478;28;20330;-77
2022/01/18 12:36:28;;;;;;;;;;;5.10;99.90;;;;;;5057191;28;20392;-77
2022/01/18 12:39:00;;;;;;;;;;;5.00;99.90;;;;;;5057071;28;20335;-79
2022/01/18 12:41:46;;;;;;;;;;;5.10;99.90;;;;;;5068584;28;19920;-79
2022/01/18 12:44:21;;;;;;;;;;;5.10;99.90;;;;;;5063597;28;20264;-77
2022/01/18 12:46:50;;;;;;;;;;;5.00;99.90;;;;;;5059416;28;19921;-77
2022/01/18 12:49:17;;;;;;;;;;;5.10;99.90;;;;;;5069856;28;19926;-77
2022/01/18 12:51:43;;;;;;;;;;;5.10;99.90;;;;;;5075796;28;20023;-78
2022/01/18 12:54:08;;;;;;;;;;;5.10;99.90;;;;;;5069581;28;19991;-79
2022/01/18 12:56:34;;;;;;;;;;;5.00;99.90;;;;;;5069339;28;19942;-79
2022/01/18 12:59:02;;;;;;;;;;;5.00;99.90;;;;;;5070122;28;19920;-78
2022/01/18 13:01:30;;;;;;;;;;;5.00;99.90;;;;;;5062839;28;20262;-78
2022/01/18 13:03:56;;;;;;;;;;;5.10;99.90;;;;;;5069203;28;19963;-77
2022/01/18 13:06:30;;;;;;;;;;;5.10;99.90;;;;;;5070014;28;19921;-77
2022/01/18 13:08:59;;;;;;;;;;;5.10;99.90;;;;;;5075927;28;19924;-78
2022/01/18 13:11:29;;;;;;;;;;;5.20;99.90;;;;;;5067506;28;19924;-78
2022/01/18 13:14:01;;;;;;;;;;;5.10;99.90;;;;;;5069124;28;19922;-77
2022/01/18 13:27:02;;;;;;;;;;;5.10;99.90;;;;;;5073338;28;19912;-78
2022/01/18 13:29:29;;;;;;;;;;;5.10;99.90;;;;;;5074762;28;20318;-77
2022/01/18 13:32:03;;;;;;;;;;;5.20;99.90;;;;;;5066981;28;19952;-77
2022/01/18 13:34:33;;;;;;;;;;;5.20;99.90;;;;;;5073289;28;19919;-77
2022/01/18 13:37:01;;;;;;;;;;;5.20;99.90;;;;;;5075214;28;20423;-78
2022/01/18 13:39:31;;;;;;;;;;;5.20;99.90;;;;;;5083166;28;19970;-77
2022/01/18 13:41:58;;;;;;;;;;;5.20;99.90;;;;;;5075676;28;20274;-78
2022/01/18 13:44:24;;;;;;;;;;;5.20;99.90;;;;;;5075787;28;19912;-77
2022/01/18 13:46:50;;;;;;;;;;;5.20;99.90;;;;;;5075496;28;20034;-77
2022/01/18 13:49:16;;;;;;;;;;;5.20;99.90;;;;;;5061156;28;20370;-77
2022/01/18 13:51:58;;;;;;;;;;;5.20;99.90;;;;;;5076210;28;19919;-78
2022/01/18 13:54:27;;;;;;;;;;;5.20;99.90;;;;;;5066273;28;20002;-78
2022/01/18 13:56:53;;;;;;;;;;;5.20;99.90;;;;;;5073004;28;19999;-77
2022/01/18 13:59:24;;;;;;;;;;;5.20;99.90;;;;;;5075053;28;19999;-79
2022/01/18 14:01:50;;;;;;;;;;;5.20;99.90;;;;;;5075960;28;19947;-77
2022/01/18 14:04:17;;;;;;;;;;;5.20;99.90;;;;;;5076321;28;19912;-78
2022/01/18 14:06:43;;;;;;;;;;;5.20;99.90;;;;;;5076368;28;19913;-77
2022/01/18 14:09:10;;;;;;;;;;;5.10;99.90;;;;;;5080871;28;19970;-78
2022/01/18 14:11:37;;;;;;;;;;;5.20;99.90;;;;;;5075178;28;20220;-77
2022/01/18 14:14:21;;;;;;;;;;;5.20;99.90;;;;;;5075791;28;19979;-77
2022/01/18 14:16:50;;;;;;;;;;;5.20;99.90;;;;;;5065973;28;19912;-78
2022/01/18 14:19:27;;;;;;;;;;;5.20;99.90;;;;;;5073924;28;19958;-78
2022/01/18 14:21:54;;;;;;;;;;;5.20;99.90;;;;;;5070058;28;19921;-77
2022/01/18 14:24:19;;;;;;;;;;;5.10;99.90;;;;;;5057356;28;19921;-77
2022/01/18 14:26:57;;;;;;;;;;;5.10;99.90;;;;;;5066325;28;19912;-77
2022/01/18 14:29:25;;;;;;;;;;;5.10;99.90;;;;;;5075374;28;19912;-76
2022/01/18 14:31:57;;;;;;;;;;;5.10;99.90;;;;;;5060112;28;20322;-77
2022/01/18 14:34:36;;;;;;;;;;;5.10;99.90;;;;;;5076913;28;19912;-77
2022/01/18 14:37:02;;;;;;;;;;;5.10;99.90;;;;;;5066262;28;19917;-77
2022/01/18 14:39:27;;;;;;;;;;;5.10;99.90;;;;;;5074111;28;19912;-77
2022/01/18 14:42:06;;;;;;;;;;;5.10;99.90;;;;;;5074190;28;19913;-76
2022/01/18 14:47:26;;;;;;;;;;;5.20;99.90;;;;;;5073653;28;20308;-77
2022/01/18 14:49:58;;;;;;;;;;;5.20;99.90;;;;;;5074148;28;19927;-77
2022/01/18 14:52:25;;;;;;;;;;;5.20;99.90;;;;;;5061247;28;19998;-77
2022/01/18 14:54:50;;;;;;;;;;;5.10;99.90;;;;;;5072878;28;19970;-77
2022/01/18 14:57:16;;;;;;;;;;;5.00;99.90;;;;;;5075454;28;19920;-77
2022/01/18 14:59:42;;;;;;;;;;;5.00;99.90;;;;;;5075265;28;19935;-77
2022/01/18 15:02:09;;;;;;;;;;;5.10;99.90;;;;;;5064263;28;19970;-78
2022/01/18 15:04:35;;;;;;;;;;;5.10;99.90;;;;;;5075316;28;19916;-77
2022/01/18 15:07:01;;;;;;;;;;;5.00;99.90;;;;;;5073370;28;19917;-77
2022/01/18 15:09:28;;;;;;;;;;;5.00;99.90;;;;;;5074058;28;19920;-76
2022/01/18 15:11:57;;;;;;;;;;;5.00;99.90;;;;;;5074553;28;19920;-77
2022/01/18 15:14:22;;;;;;;;;;;5.00;99.90;;;;;;5069473;28;19916;-77
2022/01/18 15:16:48;;;;;;;;;;;5.00;99.90;;;;;;5070767;28;19916;-77
2022/01/18 15:19:14;;;;;;;;;;;5.00;99.90;;;;;;5071766;28;19966;-77
2022/01/18 15:21:39;;;;;;;;;;;5.00;99.90;;;;;;5065750;28;19916;-77
2022/01/18 15:24:05;;;;;;;;;;;5.00;99.90;;;;;;5050667;28;19916;-76
2022/01/18 15:26:31;;;;;;;;;;;5.00;99.90;;;;;;5061661;28;20023;-77
2022/01/18 15:28:56;;;;;;;;;;;5.00;99.90;;;;;;5078012;28;20358;-77
2022/01/18 15:31:22;;;;;;;;;;;4.90;99.90;;;;;;5070192;28;20390;-76
2022/01/18 15:33:48;;;;;;;;;;;4.90;99.90;;;;;;5071606;28;20003;-77
2022/01/18 15:36:13;;;;;;;;;;;4.80;99.90;;;;;;5064373;28;20223;-75
2022/01/18 15:38:39;;;;;;;;;;;4.80;99.90;;;;;;5071948;28;20447;-76
2022/01/18 15:41:04;;;;;;;;;;;4.90;99.90;;;;;;5071228;28;19917;-77
2022/01/18 15:43:30;;;;;;;;;;;4.90;99.90;;;;;;5069028;28;19960;-76
2022/01/18 15:45:55;;;;;;;;;;;4.90;99.90;;;;;;5085224;28;19962;-77
2022/01/18 15:48:21;;;;;;;;;;;4.90;99.90;;;;;;5054428;28;19912;-78
2022/01/18 15:50:47;;;;;;;;;;;5.00;99.90;;;;;;5053835;28;19912;-76
2022/01/18 15:53:13;;;;;;;;;;;4.90;99.90;;;;;;5053802;28;20319;-76
2022/01/18 15:55:39;;;;;;;;;;;4.90;99.90;;;;;;5053526;28;19920;-76
2022/01/18 15:58:04;;;;;;;;;;;4.90;99.90;;;;;;5044645;28;19920;-77
2022/01/18 16:00:30;;;;;;;;;;;4.90;99.90;;;;;;5057163;28;19920;-77
2022/01/18 16:02:56;;;;;;;;;;;4.90;99.90;;;;;;5069529;28;19950;-77
2022/01/18 16:05:21;;;;;;;;;;;4.90;99.90;;;;;;5070490;28;20315;-77